Airfield :
LOGIN :

Register | Disclaimer

   EN    FR    IT 

 










Legend :    VFR   Marginal VFR   IFR   Intensive IFR   Very Intensive IFR
Visi :
Ceiling :
>= 8 km
>= 3000ft
5 to 8 km
1000 to 3000 ft
1500m to 5 km
500 to 1000 ft
800 to 1500m
200 to 500 ft
< 800m
< 200 ft
Symbols :   Thunderstorms  Fog  Heavy snow  Heavy precipitations  Wind > 20 kt
SIGMETs :     Misc.  Thunderstorms  Icing  Turbulence  Mountain Waves  Volcanic Ashes







- Airport Elevation : 106 ft
- IATA code : NRN


EDLV - Weeze

CURRENT METAR :
  • 161550Z VRB02KT 9999 BKN014 15/13 Q1020

EXPIRED METARs :
  • 161520Z VRB03KT 9999 BKN010 15/13 Q1020
  • 161450Z VRB03KT 9999 BKN008 15/13 Q1020
  • 161420Z VRB03KT 9999 BKN008 15/14 Q1020
  • 161350Z VRB02KT 9999 BKN006 15/14 Q1020
  • 161320Z VRB03KT 9999 BKN008 15/14 Q1020

TAF AMD TAF EDLV
Valid from the 16 at 14:00 until the 17 at 12:00 UTC


161452Z 1614/1712 28003KT 9999 BKN008
BECMG 1614/1616 SCT008 BKN014
BECMG 1616/1618 SCT012 BKN020
TEMPO 1620/1706 2500 BR
BECMG 1710/1712 29010KT
PROB30
TEMPO 1710/1712 30015G25KT
No reported NOTAMs for that airfield.



MET'MAP, your aeronautical weather chart ! - Copyright ORBIFLY December 2007 - Disclaimer

ORBIFLY MET'MAP TEAM :

Programming & Development : Alexandra Zaïnal
Concept & Development : Baudouin d'Aumeries
Co-Development & Prog : Marc-Olivier Méhu
Technical & hardware support : Manuel Goepfert

Contact : metmap@orbifly.com




SOURCES & CREDITS :

   NOAA